createdAt,value
2019-03-30T00:00:20.179Z,96975.79
2019-03-30T00:05:17.336Z,96987.03
2019-03-30T00:10:14.791Z,96983.74
2019-03-30T00:15:11.811Z,96982.61
2019-03-30T00:20:08.926Z,96976.25
2019-03-30T00:25:06.187Z,96980.59
2019-03-30T00:30:05.684Z,96977.70
2019-03-30T00:35:05.130Z,96979.77
2019-03-30T00:40:02.198Z,96970.50
2019-03-30T00:44:59.215Z,96967.59
2019-03-30T00:49:56.321Z,96964.47
2019-03-30T00:54:55.182Z,96961.96
2019-03-30T00:59:52.303Z,96969.22
2019-03-30T01:04:50.599Z,96964.03
2019-03-30T01:09:47.619Z,96967.45
2019-03-30T01:14:44.631Z,96969.13
2019-03-30T01:19:41.709Z,96970.54
2019-03-30T01:24:38.765Z,96960.75
2019-03-30T01:29:35.887Z,96953.79
2019-03-30T01:34:33.133Z,96945.67
2019-03-30T01:39:30.184Z,96945.47
2019-03-30T01:44:27.298Z,96947.58
2019-03-30T01:49:24.440Z,96953.59
2019-03-30T01:54:21.611Z,96950.75
2019-03-30T01:59:19.864Z,96956.17
2019-03-30T02:04:16.862Z,96961.53
2019-03-30T02:09:14.532Z,96963.58
2019-03-30T02:14:11.681Z,96960.94
2019-03-30T02:19:08.815Z,96958.05
2019-03-30T02:24:05.863Z,96961.89
2019-03-30T02:29:03.096Z,96960.20
2019-03-30T02:34:00.128Z,96950.75
2019-03-30T02:38:57.208Z,96945.25
2019-03-30T02:43:54.229Z,96941.88
2019-03-30T02:48:51.268Z,96938.01
2019-03-30T02:53:48.342Z,96930.34
2019-03-30T02:58:45.462Z,96942.58
2019-03-30T03:03:42.900Z,96938.73
2019-03-30T03:08:40.169Z,96935.77
2019-03-30T03:13:37.381Z,96939.75
2019-03-30T03:18:34.575Z,96939.11
2019-03-30T03:23:31.933Z,96934.78
2019-03-30T03:28:28.952Z,96942.17
2019-03-30T03:33:26.179Z,96946.77
2019-03-30T03:38:23.262Z,96948.38
2019-03-30T03:43:20.423Z,96939.73
2019-03-30T03:48:17.608Z,96945.05
2019-03-30T03:53:16.349Z,96939.73
2019-03-30T03:58:16.033Z,96948.83
2019-03-30T04:03:18.661Z,96944.61
2019-03-30T04:08:15.911Z,96954.01
2019-03-30T04:13:13.601Z,96951.42
2019-03-30T04:18:11.515Z,96951.13
2019-03-30T04:23:11.685Z,96955.73
2019-03-30T04:28:09.299Z,96944.98
2019-03-30T04:33:06.548Z,96955.34
2019-03-30T04:38:03.633Z,96947.64
2019-03-30T04:43:02.528Z,96944.36
2019-03-30T04:47:59.668Z,96939.66
2019-03-30T04:52:56.783Z,96940.41
2019-03-30T04:57:57.766Z,96931.92
2019-03-30T05:02:52.844Z,96928.78
2019-03-30T05:07:49.977Z,96926.81
2019-03-30T05:12:47.213Z,96930.80
2019-03-30T05:17:47.858Z,96913.72
2019-03-30T05:22:44.006Z,96916.22
2019-03-30T05:27:41.102Z,96916.73
2019-03-30T05:32:41.469Z,96918.23
2019-03-30T05:37:37.103Z,96914.15
2019-03-30T05:42:34.576Z,96914.14
2019-03-30T05:47:33.052Z,96912.97
2019-03-30T05:52:30.108Z,96908.89
2019-03-30T05:57:27.223Z,96905.00
2019-03-30T06:02:24.286Z,96916.88
2019-03-30T06:07:21.928Z,96915.63
2019-03-30T06:12:19.030Z,96910.05
2019-03-30T06:17:16.138Z,96910.05
2019-03-30T06:22:13.318Z,96912.95
2019-03-30T06:27:12.084Z,96914.22
2019-03-30T06:32:09.311Z,96912.83
2019-03-30T06:37:06.452Z,96910.00
2019-03-30T06:42:03.600Z,96918.92
2019-03-30T06:47:00.728Z,96910.89
2019-03-30T06:51:57.810Z,96902.38
2019-03-30T06:56:54.972Z,96903.30
2019-03-30T07:01:52.215Z,96912.46
2019-03-30T07:06:51.325Z,96906.80
2019-03-30T07:11:49.288Z,96911.64
2019-03-30T07:16:46.617Z,96914.33
2019-03-30T07:21:43.664Z,96910.34
2019-03-30T07:26:43.426Z,96899.06
2019-03-30T07:31:40.911Z,96899.05
2019-03-30T07:36:38.084Z,96898.03
2019-03-30T07:41:35.174Z,96890.95
2019-03-30T07:46:32.835Z,96898.97
2019-03-30T07:51:33.425Z,96896.75
2019-03-30T07:56:29.834Z,96888.36
2019-03-30T08:01:27.049Z,96890.06
2019-03-30T08:06:24.632Z,96885.82
2019-03-30T08:11:21.658Z,96885.98
2019-03-30T08:16:18.813Z,96892.37
2019-03-30T08:21:15.898Z,96888.63
2019-03-30T08:26:13.113Z,96886.71
2019-03-30T08:31:10.221Z,96880.31
2019-03-30T08:36:07.439Z,96883.20
2019-03-30T08:41:04.668Z,96876.48
2019-03-30T08:46:01.907Z,96863.20
2019-03-30T08:50:58.996Z,96861.14
2019-03-30T08:55:56.107Z,96865.97
2019-03-30T09:00:53.181Z,96858.10
2019-03-30T09:05:50.305Z,96857.64
2019-03-30T09:10:47.395Z,96852.16
2019-03-30T09:15:44.465Z,96860.39
2019-03-30T09:20:41.566Z,96860.20
2019-03-30T09:25:39.005Z,96867.54
2019-03-30T09:30:36.048Z,96852.73
2019-03-30T09:35:33.287Z,96847.56
2019-03-30T09:40:30.461Z,96848.57
2019-03-30T09:45:27.885Z,96850.95
2019-03-30T09:50:26.338Z,96841.25
2019-03-30T09:55:26.975Z,96839.22
2019-03-30T10:00:22.382Z,96844.25
2019-03-30T10:05:19.467Z,96829.91
2019-03-30T10:10:16.554Z,96824.92
2019-03-30T10:15:13.813Z,96822.95
2019-03-30T10:20:11.613Z,96824.23
2019-03-30T10:25:09.021Z,96816.73
2019-03-30T10:30:08.244Z,96813.47
2019-03-30T10:35:06.317Z,96798.73
2019-03-30T10:40:08.137Z,96804.65
2019-03-30T10:45:06.947Z,96801.76
2019-03-30T10:50:06.901Z,96797.85
2019-03-30T10:55:05.583Z,96784.78
2019-03-30T11:00:05.047Z,96778.88
2019-03-30T11:05:02.533Z,96767.80
2019-03-30T11:10:00.010Z,96763.22
2019-03-30T11:14:57.108Z,96754.98
2019-03-30T11:19:54.236Z,96756.34
2019-03-30T11:25:06.657Z,96745.55
2019-03-30T11:29:52.238Z,96743.70
2019-03-30T11:34:49.294Z,96742.69
2019-03-30T11:39:46.386Z,96739.83
2019-03-30T11:44:45.243Z,96722.81
2019-03-30T11:49:43.290Z,96727.48
2019-03-30T11:54:40.415Z,96714.63
2019-03-30T11:59:37.551Z,96709.06
2019-03-30T12:04:36.372Z,96698.77
2019-03-30T12:09:33.469Z,96691.80
2019-03-30T12:14:30.819Z,96691.52
2019-03-30T12:19:27.934Z,96681.91
2019-03-30T12:24:24.980Z,96672.60
2019-03-30T12:29:22.134Z,96664.17
2019-03-30T12:34:20.218Z,96659.55
2019-03-30T12:39:17.220Z,96650.39
2019-03-30T12:44:14.191Z,96636.62
2019-03-30T12:49:11.685Z,96632.55
2019-03-30T12:54:10.603Z,96623.07
2019-03-30T12:59:07.673Z,96610.69
2019-03-30T13:04:05.800Z,96608.87
2019-03-30T13:09:05.389Z,96605.09
2019-03-30T13:14:04.289Z,96600.58
2019-03-30T13:19:03.281Z,96591.52
2019-03-30T13:24:00.265Z,96582.16
2019-03-30T13:28:57.387Z,96577.83
2019-03-30T13:33:54.509Z,96571.03
2019-03-30T13:38:51.601Z,96573.55
2019-03-30T13:43:51.679Z,96580.09
2019-03-30T13:48:49.171Z,96565.70
2019-03-30T13:53:46.276Z,96554.84
2019-03-30T13:58:43.439Z,96556.29
2019-03-30T14:03:40.695Z,96558.98
2019-03-30T14:08:37.836Z,96555.47
2019-03-30T14:13:34.907Z,96549.81
2019-03-30T14:18:31.991Z,96546.30
2019-03-30T14:23:29.217Z,96544.77
2019-03-30T14:28:26.317Z,96533.48
2019-03-30T14:33:23.385Z,96538.29
2019-03-30T14:38:20.550Z,96533.45
2019-03-30T14:43:17.578Z,96526.64
2019-03-30T14:48:15.061Z,96523.73
2019-03-30T14:53:12.239Z,96515.80
2019-03-30T14:58:09.310Z,96517.92
2019-03-30T15:03:07.284Z,96509.05
2019-03-30T15:08:04.410Z,96507.06
2019-03-30T15:13:01.652Z,96498.03
2019-03-30T15:17:58.724Z,96496.53
2019-03-30T15:22:55.754Z,96490.80
2019-03-30T15:27:52.795Z,96482.80
2019-03-30T15:32:49.895Z,96482.51
2019-03-30T15:37:47.021Z,96478.35
2019-03-30T15:42:43.992Z,96476.77
2019-03-30T15:47:41.017Z,96472.69
2019-03-30T15:52:37.979Z,96469.98
2019-03-30T15:57:35.559Z,96460.89
2019-03-30T16:02:32.677Z,96463.02
2019-03-30T16:07:30.255Z,96470.53
2019-03-30T16:12:27.370Z,96455.27
2019-03-30T16:17:24.403Z,96459.03
2019-03-30T16:22:21.537Z,96451.24
2019-03-30T16:27:28.770Z,96453.75
2019-03-30T16:32:19.173Z,96452.92
2019-03-30T16:37:16.222Z,96452.72
2019-03-30T16:42:13.301Z,96459.99
2019-03-30T16:47:10.429Z,96452.27
2019-03-30T16:52:07.507Z,96457.58
2019-03-30T16:57:04.607Z,96453.98
2019-03-30T17:02:01.699Z,96449.49
2019-03-30T17:06:58.792Z,96445.69
2019-03-30T17:11:55.876Z,96449.82
2019-03-30T17:16:52.977Z,96452.89
2019-03-30T17:21:50.014Z,96456.59
2019-03-30T17:26:47.053Z,96458.92
2019-03-30T17:31:44.103Z,96460.17
2019-03-30T17:36:41.215Z,96466.45
2019-03-30T17:41:38.361Z,96469.69
2019-03-30T17:46:35.487Z,96468.65
2019-03-30T17:51:34.581Z,96473.88
2019-03-30T17:56:31.754Z,96477.90
2019-03-30T18:01:28.873Z,96481.33
2019-03-30T18:06:26.042Z,96484.02
2019-03-30T18:11:22.984Z,96485.77
2019-03-30T18:16:22.402Z,96487.70
2019-03-30T18:21:19.000Z,96479.66
2019-03-30T18:26:16.258Z,96483.33
2019-03-30T18:31:15.375Z,96486.10
2019-03-30T18:36:14.967Z,96478.77
2019-03-30T18:41:12.010Z,96478.69
2019-03-30T18:46:09.252Z,96477.67
2019-03-30T18:51:06.503Z,96477.65
2019-03-30T18:56:03.631Z,96472.72
2019-03-30T19:01:00.640Z,96474.61
2019-03-30T19:05:58.193Z,96475.54
2019-03-30T19:10:55.160Z,96479.80
2019-03-30T19:15:52.204Z,96482.82
2019-03-30T19:20:49.252Z,96469.12
2019-03-30T19:25:46.360Z,96472.98
2019-03-30T19:30:43.343Z,96468.30
2019-03-30T19:35:40.395Z,96467.45
2019-03-30T19:40:37.503Z,96463.44
2019-03-30T19:45:34.965Z,96459.59
2019-03-30T19:50:32.157Z,96456.06
2019-03-30T19:55:29.310Z,96450.20
2019-03-30T20:00:26.358Z,96443.71
2019-03-30T20:05:23.367Z,96440.35
2019-03-30T20:10:20.540Z,96439.19
2019-03-30T20:15:17.656Z,96430.19
2019-03-30T20:20:15.502Z,96424.67
2019-03-30T20:25:13.532Z,96426.36
2019-03-30T20:30:12.629Z,96427.86
2019-03-30T20:35:10.030Z,96420.67
2019-03-30T20:40:07.477Z,96418.81
2019-03-30T20:45:06.204Z,96414.61
2019-03-30T20:50:05.582Z,96421.28
2019-03-30T20:55:05.216Z,96418.42
2019-03-30T21:00:05.089Z,96413.98
2019-03-30T21:05:02.643Z,96417.70
2019-03-30T21:09:59.674Z,96410.41
2019-03-30T21:14:56.872Z,96414.02
2019-03-30T21:19:53.910Z,96404.23
2019-03-30T21:24:51.104Z,96409.38
2019-03-30T21:29:54.995Z,96409.33
2019-03-30T21:34:47.956Z,96397.05
2019-03-30T21:39:45.087Z,96400.38
2019-03-30T21:44:42.189Z,96400.80
2019-03-30T21:49:39.239Z,96390.48
2019-03-30T21:54:36.246Z,96397.16
2019-03-30T21:59:33.328Z,96385.63
2019-03-30T22:04:30.403Z,96393.23
2019-03-30T22:09:27.522Z,96385.83
2019-03-30T22:14:24.658Z,96382.95
2019-03-30T22:19:21.746Z,96376.99
2019-03-30T22:24:18.982Z,96380.48
2019-03-30T22:29:16.014Z,96377.94
2019-03-30T22:34:14.279Z,96376.64
2019-03-30T22:39:11.333Z,96368.41
2019-03-30T22:44:08.392Z,96362.86
2019-03-30T22:49:05.587Z,96367.23
2019-03-30T22:54:02.712Z,96359.22
2019-03-30T22:58:59.780Z,96366.44
2019-03-30T23:03:57.018Z,96358.67
2019-03-30T23:08:54.028Z,96357.94
2019-03-30T23:13:51.086Z,96360.98
2019-03-30T23:18:48.144Z,96363.30
2019-03-30T23:23:45.291Z,96358.08
2019-03-30T23:28:42.331Z,96361.08
2019-03-30T23:33:39.350Z,96353.30
2019-03-30T23:38:37.690Z,96347.19
2019-03-30T23:43:34.828Z,96350.55
2019-03-30T23:48:31.898Z,96354.33
2019-03-30T23:53:29.034Z,96344.56
2019-03-30T23:58:26.248Z,96341.32
